sensor_id;sensor_type;location;lat;lon;timestamp;pressure;altitude;pressure_sealevel;temperature;humidity
44079;BME280;29744;49.078;12.878;2023-03-21T00:00:09;96581.97;;;15.14;34.15
44079;BME280;29744;49.078;12.878;2023-03-21T00:05:10;96571.81;;;15.11;34.17
44079;BME280;29744;49.078;12.878;2023-03-21T00:10:10;96570.56;;;15.08;34.75
44079;BME280;29744;49.078;12.878;2023-03-21T00:15:11;96560.88;;;15.07;34.54
44079;BME280;29744;49.078;12.878;2023-03-21T00:20:12;96566.59;;;15.06;34.38
44079;BME280;29744;49.078;12.878;2023-03-21T00:25:13;96568.50;;;15.05;34.55
44079;BME280;29744;49.078;12.878;2023-03-21T00:30:14;96567.22;;;15.03;34.53
44079;BME280;29744;49.078;12.878;2023-03-21T00:35:15;96561.34;;;15.01;34.82
44079;BME280;29744;49.078;12.878;2023-03-21T00:40:15;96551.66;;;15.00;34.67
44079;BME280;29744;49.078;12.878;2023-03-21T00:45:16;96560.06;;;14.98;34.71
44079;BME280;29744;49.078;12.878;2023-03-21T00:50:18;96549.59;;;14.97;34.56
44079;BME280;29744;49.078;12.878;2023-03-21T00:55:18;96545.31;;;14.96;34.31
44079;BME280;29744;49.078;12.878;2023-03-21T01:00:19;96539.44;;;14.94;34.95
44079;BME280;29744;49.078;12.878;2023-03-21T01:05:19;96538.66;;;14.93;34.53
44079;BME280;29744;49.078;12.878;2023-03-21T01:10:42;96527.69;;;14.90;34.85
44079;BME280;29744;49.078;12.878;2023-03-21T01:15:45;96538.50;;;14.90;34.59
44079;BME280;29744;49.078;12.878;2023-03-21T01:20:46;96531.50;;;14.89;34.67
44079;BME280;29744;49.078;12.878;2023-03-21T01:25:49;96528.34;;;14.87;34.23
44079;BME280;29744;49.078;12.878;2023-03-21T01:30:50;96532.16;;;14.86;34.55
44079;BME280;29744;49.078;12.878;2023-03-21T01:35:50;96524.38;;;14.84;34.74
44079;BME280;29744;49.078;12.878;2023-03-21T01:40:51;96525.50;;;14.83;34.50
44079;BME280;29744;49.078;12.878;2023-03-21T01:51:11;96520.75;;;14.80;34.88
44079;BME280;29744;49.078;12.878;2023-03-21T01:56:17;96523.75;;;14.78;34.56
44079;BME280;29744;49.078;12.878;2023-03-21T02:01:18;96518.69;;;14.77;34.60
44079;BME280;29744;49.078;12.878;2023-03-21T02:06:30;96516.31;;;14.75;34.53
44079;BME280;29744;49.078;12.878;2023-03-21T02:11:31;96503.94;;;14.74;34.55
44079;BME280;29744;49.078;12.878;2023-03-21T02:16:43;96507.75;;;14.73;34.80
44079;BME280;29744;49.078;12.878;2023-03-21T02:27:14;96495.22;;;14.69;34.66
44079;BME280;29744;49.078;12.878;2023-03-21T02:37:32;96498.72;;;14.69;35.00
44079;BME280;29744;49.078;12.878;2023-03-21T02:43:04;96494.28;;;14.65;35.01
44079;BME280;29744;49.078;12.878;2023-03-21T02:48:15;96492.38;;;14.65;34.86
44079;BME280;29744;49.078;12.878;2023-03-21T02:53:20;96494.28;;;14.65;35.15
44079;BME280;29744;49.078;12.878;2023-03-21T02:58:23;96496.19;;;14.64;34.65
44079;BME280;29744;49.078;12.878;2023-03-21T03:03:24;96491.91;;;14.63;34.96
44079;BME280;29744;49.078;12.878;2023-03-21T03:09:23;96482.06;;;14.59;34.98
44079;BME280;29744;49.078;12.878;2023-03-21T03:14:47;96478.56;;;14.58;34.92
44079;BME280;29744;49.078;12.878;2023-03-21T03:20:07;96486.69;;;14.58;34.92
44079;BME280;29744;49.078;12.878;2023-03-21T03:25:19;96480.47;;;14.58;35.00
44079;BME280;29744;49.078;12.878;2023-03-21T03:30:24;96481.59;;;14.57;35.19
44079;BME280;29744;49.078;12.878;2023-03-21T03:35:27;96482.38;;;14.57;34.89
44079;BME280;29744;49.078;12.878;2023-03-21T03:40:30;96480.81;;;14.56;34.73
44079;BME280;29744;49.078;12.878;2023-03-21T03:45:51;96485.72;;;14.54;34.75
44079;BME280;29744;49.078;12.878;2023-03-21T03:50:59;96488.44;;;14.54;34.68
44079;BME280;29744;49.078;12.878;2023-03-21T03:56:03;96485.72;;;14.54;35.28
44079;BME280;29744;49.078;12.878;2023-03-21T04:01:06;96489.53;;;14.53;34.96
44079;BME280;29744;49.078;12.878;2023-03-21T04:06:06;96489.06;;;14.51;35.01
44079;BME280;29744;49.078;12.878;2023-03-21T04:11:07;96487.50;;;14.50;35.08
44079;BME280;29744;49.078;12.878;2023-03-21T04:16:08;96492.88;;;14.50;35.32
44079;BME280;29744;49.078;12.878;2023-03-21T04:21:10;96492.88;;;14.50;34.82
44079;BME280;29744;49.078;12.878;2023-03-21T04:26:11;96485.13;;;14.48;35.00
44079;BME280;29744;49.078;12.878;2023-03-21T04:31:12;96490.50;;;14.48;35.38
44079;BME280;29744;49.078;12.878;2023-03-21T04:36:12;96483.53;;;14.47;35.10
44079;BME280;29744;49.078;12.878;2023-03-21T04:41:24;96482.75;;;14.47;35.36
44079;BME280;29744;49.078;12.878;2023-03-21T04:46:24;96474.66;;;14.47;34.93
44079;BME280;29744;49.078;12.878;2023-03-21T04:51:24;96473.69;;;14.52;35.26
44079;BME280;29744;49.078;12.878;2023-03-21T04:56:26;96467.31;;;14.56;35.27
44079;BME280;29744;49.078;12.878;2023-03-21T05:01:31;96470.31;;;14.63;34.97
44079;BME280;29744;49.078;12.878;2023-03-21T05:06:32;96474.88;;;14.71;34.76
44079;BME280;29744;49.078;12.878;2023-03-21T05:11:35;96474.53;;;14.81;34.90
44079;BME280;29744;49.078;12.878;2023-03-21T05:16:41;96463.34;;;14.92;35.10
44079;BME280;29744;49.078;12.878;2023-03-21T05:21:43;96477.31;;;15.02;35.09
44079;BME280;29744;49.078;12.878;2023-03-21T05:26:45;96471.53;;;15.12;34.68
44079;BME280;29744;49.078;12.878;2023-03-21T05:31:56;96470.06;;;15.24;34.60
44079;BME280;29744;49.078;12.878;2023-03-21T05:36:56;96473.94;;;15.35;34.81
44079;BME280;29744;49.078;12.878;2023-03-21T05:41:56;96477.06;;;15.45;34.37
44079;BME280;29744;49.078;12.878;2023-03-21T05:46:56;96486.38;;;15.57;34.70
44079;BME280;29744;49.078;12.878;2023-03-21T05:51:57;96485.97;;;15.67;34.07
44079;BME280;29744;49.078;12.878;2023-03-21T05:56:57;96471.59;;;15.75;34.49
44079;BME280;29744;49.078;12.878;2023-03-21T06:01:57;96489.25;;;15.81;33.97
44079;BME280;29744;49.078;12.878;2023-03-21T06:06:58;96482.50;;;15.87;34.21
44079;BME280;29744;49.078;12.878;2023-03-21T06:11:58;96483.88;;;15.93;34.09
44079;BME280;29744;49.078;12.878;2023-03-21T06:16:59;96490.22;;;15.97;34.07
44079;BME280;29744;49.078;12.878;2023-03-21T06:21:59;96496.53;;;16.01;33.71
44079;BME280;29744;49.078;12.878;2023-03-21T06:26:59;96493.50;;;16.03;33.66
44079;BME280;29744;49.078;12.878;2023-03-21T06:32:00;96496.69;;;16.05;33.78
44079;BME280;29744;49.078;12.878;2023-03-21T06:37:00;96504.47;;;16.06;34.03
44079;BME280;29744;49.078;12.878;2023-03-21T06:42:01;96504.47;;;16.06;33.89
44079;BME280;29744;49.078;12.878;2023-03-21T06:47:01;96504.47;;;16.06;34.15
44079;BME280;29744;49.078;12.878;2023-03-21T06:52:01;96504.47;;;16.06;33.81
44079;BME280;29744;49.078;12.878;2023-03-21T06:57:02;96511.78;;;16.06;33.82
44079;BME280;29744;49.078;12.878;2023-03-21T07:02:02;96519.91;;;16.06;33.74
44079;BME280;29744;49.078;12.878;2023-03-21T07:07:03;96522.94;;;16.04;33.83
44079;BME280;29744;49.078;12.878;2023-03-21T07:12:04;96522.16;;;16.04;33.78
44079;BME280;29744;49.078;12.878;2023-03-21T07:17:04;96534.41;;;16.01;33.76
44079;BME280;29744;49.078;12.878;2023-03-21T07:22:04;96532.84;;;16.00;33.78
44079;BME280;29744;49.078;12.878;2023-03-21T07:27:05;96533.16;;;15.99;34.03
44079;BME280;29744;49.078;12.878;2023-03-21T07:32:05;96536.19;;;15.97;34.04
44079;BME280;29744;49.078;12.878;2023-03-21T07:37:05;96537.31;;;15.96;33.93
44079;BME280;29744;49.078;12.878;2023-03-21T07:42:06;96534.16;;;15.94;33.96
44079;BME280;29744;49.078;12.878;2023-03-21T07:47:06;96530.19;;;15.92;33.83
44079;BME280;29744;49.078;12.878;2023-03-21T07:52:06;96527.81;;;15.90;34.10
44079;BME280;29744;49.078;12.878;2023-03-21T07:57:07;96529.28;;;15.88;33.52
44079;BME280;29744;49.078;12.878;2023-03-21T08:02:12;96533.09;;;15.87;33.84
44079;BME280;29744;49.078;12.878;2023-03-21T08:07:12;96529.94;;;15.85;34.12
44079;BME280;29744;49.078;12.878;2023-03-21T08:12:13;96523.28;;;15.82;34.12
44079;BME280;29744;49.078;12.878;2023-03-21T08:17:13;96527.09;;;15.81;33.67
44079;BME280;29744;49.078;12.878;2023-03-21T08:22:13;96529.31;;;15.79;33.91
44079;BME280;29744;49.078;12.878;2023-03-21T08:27:14;96517.25;;;15.76;34.03
44079;BME280;29744;49.078;12.878;2023-03-21T08:32:17;96510.56;;;15.74;34.01
44079;BME280;29744;49.078;12.878;2023-03-21T08:37:17;96517.44;;;15.71;33.96
44079;BME280;29744;49.078;12.878;2023-03-21T08:42:19;96513.47;;;15.69;34.04
44079;BME280;29744;49.078;12.878;2023-03-21T08:47:20;96508.72;;;15.66;33.78
44079;BME280;29744;49.078;12.878;2023-03-21T08:52:21;96502.84;;;15.64;34.32
44079;BME280;29744;49.078;12.878;2023-03-21T08:57:21;96498.09;;;15.61;33.95
44079;BME280;29744;49.078;12.878;2023-03-21T09:02:21;96494.16;;;15.58;34.34
44079;BME280;29744;49.078;12.878;2023-03-21T09:07:22;96490.97;;;15.56;33.84
44079;BME280;29744;49.078;12.878;2023-03-21T09:12:25;96489.72;;;15.54;33.73
44079;BME280;29744;49.078;12.878;2023-03-21T09:17:25;96485.78;;;15.51;34.15
44079;BME280;29744;49.078;12.878;2023-03-21T09:22:26;96481.81;;;15.49;34.05
44079;BME280;29744;49.078;12.878;2023-03-21T09:27:26;96479.44;;;15.47;34.14
44079;BME280;29744;49.078;12.878;2023-03-21T09:32:27;96482.47;;;15.45;34.44
44079;BME280;29744;49.078;12.878;2023-03-21T09:37:28;96477.41;;;15.44;34.09
44079;BME280;29744;49.078;12.878;2023-03-21T09:42:54;96470.72;;;15.41;34.02
44079;BME280;29744;49.078;12.878;2023-03-21T09:47:58;96471.06;;;15.40;34.25
44079;BME280;29744;49.078;12.878;2023-03-21T09:53:02;96479.81;;;15.37;34.26
44079;BME280;29744;49.078;12.878;2023-03-21T09:58:14;96470.94;;;15.36;34.43
44079;BME280;29744;49.078;12.878;2023-03-21T10:03:23;96469.66;;;15.34;34.06
44079;BME280;29744;49.078;12.878;2023-03-21T10:08:28;96463.47;;;15.33;34.18
44079;BME280;29744;49.078;12.878;2023-03-21T10:13:36;96461.44;;;15.30;34.34
44079;BME280;29744;49.078;12.878;2023-03-21T10:18:41;96459.06;;;15.29;33.95
44079;BME280;29744;49.078;12.878;2023-03-21T10:23:42;96455.88;;;15.27;34.18
44079;BME280;29744;49.078;12.878;2023-03-21T10:28:43;96450.03;;;15.25;34.15
44079;BME280;29744;49.078;12.878;2023-03-21T10:33:47;96444.63;;;15.25;34.57
44079;BME280;29744;49.078;12.878;2023-03-21T10:38:52;96439.53;;;15.23;34.40
44079;BME280;29744;49.078;12.878;2023-03-21T10:44:09;96435.59;;;15.21;34.04
44079;BME280;29744;49.078;12.878;2023-03-21T10:49:15;96435.91;;;15.19;34.65
44079;BME280;29744;49.078;12.878;2023-03-21T10:54:18;96438.63;;;15.19;34.51
44079;BME280;29744;49.078;12.878;2023-03-21T10:59:20;96432.75;;;15.17;34.46
44079;BME280;29744;49.078;12.878;2023-03-21T11:04:24;96429.25;;;15.17;34.42
44079;BME280;29744;49.078;12.878;2023-03-21T11:09:42;96419.91;;;15.14;34.43
44079;BME280;29744;49.078;12.878;2023-03-21T11:14:47;96413.69;;;15.13;34.66
44079;BME280;29744;49.078;12.878;2023-03-21T11:19:51;96403.69;;;15.14;34.67
44079;BME280;29744;49.078;12.878;2023-03-21T11:24:57;96400.53;;;15.12;34.63
44079;BME280;29744;49.078;12.878;2023-03-21T11:29:59;96400.84;;;15.10;34.61
44079;BME280;29744;49.078;12.878;2023-03-21T11:35:13;96384.97;;;15.09;34.12
44079;BME280;29744;49.078;12.878;2023-03-21T11:45:35;96374.81;;;15.06;34.65
44079;BME280;29744;49.078;12.878;2023-03-21T11:50:40;96377.53;;;15.06;34.75
44079;BME280;29744;49.078;12.878;2023-03-21T12:00:59;96351.97;;;15.03;34.20
44079;BME280;29744;49.078;12.878;2023-03-21T12:06:04;96348.47;;;15.03;34.88
44079;BME280;29744;49.078;12.878;2023-03-21T12:11:17;96339.88;;;15.01;34.73
44079;BME280;29744;49.078;12.878;2023-03-21T12:27:23;96322.75;;;14.97;34.85
44079;BME280;29744;49.078;12.878;2023-03-21T12:32:37;96319.25;;;14.96;34.58
44079;BME280;29744;49.078;12.878;2023-03-21T12:54:07;96288.63;;;14.92;34.42
44079;BME280;29744;49.078;12.878;2023-03-21T13:04:39;96273.88;;;14.90;35.04
44079;BME280;29744;49.078;12.878;2023-03-21T13:09:42;96275.47;;;14.91;34.78
44079;BME280;29744;49.078;12.878;2023-03-21T13:20:28;96267.91;;;14.84;33.94
44079;BME280;29744;49.078;12.878;2023-03-21T13:25:40;96255.50;;;14.83;34.21
44079;BME280;29744;49.078;12.878;2023-03-21T13:30:42;96250.91;;;14.83;34.20
44079;BME280;29744;49.078;12.878;2023-03-21T13:35:44;96240.44;;;14.82;33.98
44079;BME280;29744;49.078;12.878;2023-03-21T13:40:48;96247.75;;;14.81;34.18
44079;BME280;29744;49.078;12.878;2023-03-21T13:45:52;96247.75;;;14.81;33.88
44079;BME280;29744;49.078;12.878;2023-03-21T13:51:02;96250.78;;;14.80;34.04
44079;BME280;29744;49.078;12.878;2023-03-21T14:01:25;96238.41;;;14.79;33.75
44079;BME280;29744;49.078;12.878;2023-03-21T14:07:00;96237.94;;;14.77;34.24
44079;BME280;29744;49.078;12.878;2023-03-21T14:12:02;96233.00;;;14.79;34.46
44079;BME280;29744;49.078;12.878;2023-03-21T14:17:34;96227.94;;;14.77;34.38
44079;BME280;29744;49.078;12.878;2023-03-21T14:22:33;96227.19;;;14.68;34.21
44079;BME280;29744;49.078;12.878;2023-03-21T14:27:34;96222.06;;;14.75;34.51
44079;BME280;29744;49.078;12.878;2023-03-21T14:32:36;96215.56;;;14.76;34.31
44079;BME280;29744;49.078;12.878;2023-03-21T14:37:40;96203.19;;;14.75;34.43
44079;BME280;29744;49.078;12.878;2023-03-21T14:42:45;96216.66;;;14.75;34.06
44079;BME280;29744;49.078;12.878;2023-03-21T14:48:04;96208.91;;;14.74;34.63
44079;BME280;29744;49.078;12.878;2023-03-21T14:53:06;96210.81;;;14.73;34.13
44079;BME280;29744;49.078;12.878;2023-03-21T14:58:12;96200.81;;;14.74;34.33
44079;BME280;29744;49.078;12.878;2023-03-21T15:03:12;96205.75;;;14.72;34.21
44079;BME280;29744;49.078;12.878;2023-03-21T15:08:18;96206.53;;;14.72;34.22
44079;BME280;29744;49.078;12.878;2023-03-21T15:13:21;96203.03;;;14.72;34.66
44079;BME280;29744;49.078;12.878;2023-03-21T15:18:26;96199.56;;;14.71;34.49
44079;BME280;29744;49.078;12.878;2023-03-21T15:23:39;96186.38;;;14.70;34.47
44079;BME280;29744;49.078;12.878;2023-03-21T15:28:41;96184.81;;;14.69;34.47
44079;BME280;29744;49.078;12.878;2023-03-21T15:33:47;96191.00;;;14.69;34.26
44079;BME280;29744;49.078;12.878;2023-03-21T15:38:48;96186.72;;;14.68;34.81
44079;BME280;29744;49.078;12.878;2023-03-21T15:43:53;96182.09;;;14.69;34.66
44079;BME280;29744;49.078;12.878;2023-03-21T15:54:23;96188.16;;;14.66;34.58
44079;BME280;29744;49.078;12.878;2023-03-21T15:59:26;96180.41;;;14.64;34.31
44079;BME280;29744;49.078;12.878;2023-03-21T16:04:30;96185.78;;;14.64;34.36
44079;BME280;29744;49.078;12.878;2023-03-21T16:09:42;96188.50;;;14.64;34.44
44079;BME280;29744;49.078;12.878;2023-03-21T16:19:45;96186.91;;;14.63;34.86
44079;BME280;29744;49.078;12.878;2023-03-21T16:24:47;96197.72;;;14.63;34.62
44079;BME280;29744;49.078;12.878;2023-03-21T16:29:47;96190.75;;;14.62;34.67
44079;BME280;29744;49.078;12.878;2023-03-21T16:34:47;96192.97;;;14.60;35.06
44079;BME280;29744;49.078;12.878;2023-03-21T16:39:48;96196.47;;;14.61;34.58
44079;BME280;29744;49.078;12.878;2023-03-21T16:44:48;96191.41;;;14.59;34.74
44079;BME280;29744;49.078;12.878;2023-03-21T16:49:48;96200.75;;;14.62;34.53
44079;BME280;29744;49.078;12.878;2023-03-21T16:54:48;96202.78;;;14.65;34.88
44079;BME280;29744;49.078;12.878;2023-03-21T16:59:49;96204.50;;;14.69;34.83
44079;BME280;29744;49.078;12.878;2023-03-21T17:04:49;96204.28;;;14.74;34.81
44079;BME280;29744;49.078;12.878;2023-03-21T17:09:50;96207.59;;;14.80;34.65
44079;BME280;29744;49.078;12.878;2023-03-21T17:14:50;96208.97;;;14.86;34.63
44079;BME280;29744;49.078;12.878;2023-03-21T17:19:51;96210.34;;;14.92;34.98
44079;BME280;29744;49.078;12.878;2023-03-21T17:24:51;96209.47;;;15.00;34.33
44079;BME280;29744;49.078;12.878;2023-03-21T17:29:51;96209.75;;;15.07;34.73
44079;BME280;29744;49.078;12.878;2023-03-21T17:34:51;96211.91;;;15.14;34.24
44079;BME280;29744;49.078;12.878;2023-03-21T17:39:52;96219.81;;;15.19;34.45
44079;BME280;29744;49.078;12.878;2023-03-21T17:44:52;96218.13;;;15.27;34.48
44079;BME280;29744;49.078;12.878;2023-03-21T17:49:52;96218.72;;;15.32;34.15
44079;BME280;29744;49.078;12.878;2023-03-21T17:54:53;96218.97;;;15.39;34.21
44079;BME280;29744;49.078;12.878;2023-03-21T17:59:53;96217.63;;;15.45;34.01
44079;BME280;29744;49.078;12.878;2023-03-21T18:04:55;96228.22;;;15.51;34.28
44079;BME280;29744;49.078;12.878;2023-03-21T18:09:56;96231.50;;;15.56;34.08
44079;BME280;29744;49.078;12.878;2023-03-21T18:14:56;96235.13;;;15.60;34.44
44079;BME280;29744;49.078;12.878;2023-03-21T18:19:57;96231.41;;;15.65;34.24
44079;BME280;29744;49.078;12.878;2023-03-21T18:24:57;96229.59;;;15.69;33.79
44079;BME280;29744;49.078;12.878;2023-03-21T18:29:58;96239.41;;;15.73;34.09
44079;BME280;29744;49.078;12.878;2023-03-21T18:34:58;96240.66;;;15.76;33.84
44079;BME280;29744;49.078;12.878;2023-03-21T18:39:59;96246.22;;;15.80;33.80
44079;BME280;29744;49.078;12.878;2023-03-21T18:45:00;96243.63;;;15.83;34.23
44079;BME280;29744;49.078;12.878;2023-03-21T18:50:01;96244.88;;;15.86;33.73
44079;BME280;29744;49.078;12.878;2023-03-21T18:55:02;96246.13;;;15.88;33.71
44079;BME280;29744;49.078;12.878;2023-03-21T19:00:05;96239.56;;;15.89;34.10
44079;BME280;29744;49.078;12.878;2023-03-21T19:05:11;96247.81;;;15.93;34.09
44079;BME280;29744;49.078;12.878;2023-03-21T19:10:13;96255.47;;;15.91;33.69
44079;BME280;29744;49.078;12.878;2023-03-21T19:15:14;96241.59;;;15.92;33.84
44079;BME280;29744;49.078;12.878;2023-03-21T19:20:16;96252.88;;;15.94;33.73
44079;BME280;29744;49.078;12.878;2023-03-21T19:25:17;96254.78;;;15.94;33.65
44079;BME280;29744;49.078;12.878;2023-03-21T19:30:17;96248.59;;;15.93;33.88
44079;BME280;29744;49.078;12.878;2023-03-21T19:35:18;96252.88;;;15.94;33.83
44079;BME280;29744;49.078;12.878;2023-03-21T19:40:18;96252.88;;;15.94;33.98
44079;BME280;29744;49.078;12.878;2023-03-21T19:45:18;96251.31;;;15.93;33.51
44079;BME280;29744;49.078;12.878;2023-03-21T19:50:19;96252.88;;;15.94;33.88
44079;BME280;29744;49.078;12.878;2023-03-21T19:55:20;96250.19;;;15.94;34.07
44079;BME280;29744;49.078;12.878;2023-03-21T20:00:20;96251.31;;;15.93;34.07
44079;BME280;29744;49.078;12.878;2023-03-21T20:05:21;96253.22;;;15.93;33.70
44079;BME280;29744;49.078;12.878;2023-03-21T20:10:24;96255.91;;;15.93;33.83
44079;BME280;29744;49.078;12.878;2023-03-21T20:15:27;96257.03;;;15.92;33.50
44079;BME280;29744;49.078;12.878;2023-03-21T20:20:27;96253.22;;;15.93;33.94
44079;BME280;29744;49.078;12.878;2023-03-21T20:25:28;96258.97;;;15.91;34.06
44079;BME280;29744;49.078;12.878;2023-03-21T20:30:29;96254.34;;;15.92;33.60
44079;BME280;29744;49.078;12.878;2023-03-21T20:35:29;96251.97;;;15.90;33.81
44079;BME280;29744;49.078;12.878;2023-03-21T20:40:30;96252.75;;;15.91;34.07
44079;BME280;29744;49.078;12.878;2023-03-21T20:45:31;96250.06;;;15.91;33.58
44079;BME280;29744;49.078;12.878;2023-03-21T20:50:31;96255.47;;;15.91;33.90
44079;BME280;29744;49.078;12.878;2023-03-21T20:55:32;96251.19;;;15.90;33.60
44079;BME280;29744;49.078;12.878;2023-03-21T21:00:33;96251.19;;;15.90;33.63
44079;BME280;29744;49.078;12.878;2023-03-21T21:05:33;96246.91;;;15.89;33.85
44079;BME280;29744;49.078;12.878;2023-03-21T21:10:37;96249.28;;;15.90;33.82
44079;BME280;29744;49.078;12.878;2023-03-21T21:15:37;96246.91;;;15.89;33.71
44079;BME280;29744;49.078;12.878;2023-03-21T21:20:38;96241.84;;;15.87;33.61
44079;BME280;29744;49.078;12.878;2023-03-21T21:25:38;96253.44;;;15.88;33.61
44079;BME280;29744;49.078;12.878;2023-03-21T21:30:39;96249.50;;;15.85;33.63
44079;BME280;29744;49.078;12.878;2023-03-21T21:35:40;96260.31;;;15.85;33.93
44079;BME280;29744;49.078;12.878;2023-03-21T21:40:49;96243.63;;;15.83;33.97
44079;BME280;29744;49.078;12.878;2023-03-21T21:45:50;96240.47;;;15.81;33.92
44079;BME280;29744;49.078;12.878;2023-03-21T21:50:50;96240.00;;;15.79;33.95
44079;BME280;29744;49.078;12.878;2023-03-21T21:55:53;96241.13;;;15.78;33.87
44079;BME280;29744;49.078;12.878;2023-03-21T22:00:59;96244.16;;;15.76;33.81
44079;BME280;29744;49.078;12.878;2023-03-21T22:06:01;96240.22;;;15.74;33.88
44079;BME280;29744;49.078;12.878;2023-03-21T22:11:02;96243.59;;;15.71;33.97
44079;BME280;29744;49.078;12.878;2023-03-21T22:16:03;96243.13;;;15.69;34.34
44079;BME280;29744;49.078;12.878;2023-03-21T22:21:05;96250.78;;;15.67;34.11
44079;BME280;29744;49.078;12.878;2023-03-21T22:26:06;96244.91;;;15.65;33.81
44079;BME280;29744;49.078;12.878;2023-03-21T22:31:09;96245.25;;;15.63;34.16
44079;BME280;29744;49.078;12.878;2023-03-21T22:36:10;96260.22;;;15.61;34.10
44079;BME280;29744;49.078;12.878;2023-03-21T22:41:10;96264.38;;;15.58;34.13
44079;BME280;29744;49.078;12.878;2023-03-21T22:46:11;96268.56;;;15.56;33.78
44079;BME280;29744;49.078;12.878;2023-03-21T22:51:11;96269.69;;;15.55;34.30
44079;BME280;29744;49.078;12.878;2023-03-21T22:56:11;96271.91;;;15.53;34.14
44079;BME280;29744;49.078;12.878;2023-03-21T23:01:11;96268.75;;;15.51;34.13
44079;BME280;29744;49.078;12.878;2023-03-21T23:06:12;96275.63;;;15.48;34.04
44079;BME280;29744;49.078;12.878;2023-03-21T23:11:12;96270.56;;;15.46;34.14
44079;BME280;29744;49.078;12.878;2023-03-21T23:16:13;96257.38;;;15.45;34.07
44079;BME280;29744;49.078;12.878;2023-03-21T23:21:14;96258.84;;;15.42;33.98
44079;BME280;29744;49.078;12.878;2023-03-21T23:26:17;96262.66;;;15.41;34.41
44079;BME280;29744;49.078;12.878;2023-03-21T23:31:20;96263.00;;;15.40;34.36
44079;BME280;29744;49.078;12.878;2023-03-21T23:36:21;96259.03;;;15.37;34.31
44079;BME280;29744;49.078;12.878;2023-03-21T23:41:22;96253.19;;;15.35;33.93
44079;BME280;29744;49.078;12.878;2023-03-21T23:46:23;96247.31;;;15.33;34.01
44079;BME280;29744;49.078;12.878;2023-03-21T23:51:23;96236.38;;;15.30;34.29
44079;BME280;29744;49.078;12.878;2023-03-21T23:56:24;96243.69;;;15.29;34.46
